createdAt,value
2022-09-12T00:02:08.734Z,83.30
2022-09-12T00:04:35.652Z,83.30
2022-09-12T00:07:04.754Z,83.30
2022-09-12T00:09:31.881Z,83.30
2022-09-12T00:12:01.634Z,83.30
2022-09-12T00:14:28.547Z,83.30
2022-09-12T00:16:59.529Z,83.30
2022-09-12T00:19:37.201Z,83.30
2022-09-12T00:22:07.259Z,83.30
2022-09-12T00:24:35.161Z,83.30
2022-09-12T00:27:02.119Z,83.30
2022-09-12T00:29:29.321Z,83.30
2022-09-12T00:31:56.242Z,83.30
2022-09-12T00:34:26.191Z,83.30
2022-09-12T00:36:53.105Z,83.30
2022-09-12T00:39:25.181Z,83.10
2022-09-12T00:41:54.943Z,83.30
2022-09-12T00:44:24.354Z,83.30
2022-09-12T00:47:00.634Z,83.10
2022-09-12T00:49:40.598Z,83.10
2022-09-12T00:52:35.276Z,83.10
2022-09-12T00:55:16.142Z,83.10
2022-09-12T00:57:57.482Z,83.10
2022-09-12T01:00:27.343Z,83.10
2022-09-12T01:03:02.059Z,83.10
2022-09-12T01:05:32.999Z,83.10
2022-09-12T01:08:03.552Z,83.10
2022-09-12T01:10:33.059Z,83.10
2022-09-12T01:13:00.231Z,83.10
2022-09-12T01:15:30.141Z,83.10
2022-09-12T01:18:20.907Z,83.10
2022-09-12T01:21:10.200Z,83.10
2022-09-12T01:24:18.278Z,83.10
2022-09-12T01:27:20.720Z,83.10
2022-09-12T01:30:25.341Z,83.00
2022-09-12T01:33:15.844Z,83.10
2022-09-12T01:35:59.967Z,83.10
2022-09-12T01:38:48.349Z,83.10
2022-09-12T01:41:27.420Z,83.10
2022-09-12T01:44:33.473Z,83.10
2022-09-12T01:47:09.451Z,83.10
2022-09-12T01:50:03.191Z,83.10
2022-09-12T01:52:47.392Z,83.10
2022-09-12T01:55:24.878Z,83.10
2022-09-12T01:58:02.836Z,83.10
2022-09-12T02:00:37.881Z,83.10
2022-09-12T02:03:23.032Z,83.10
2022-09-12T02:05:57.131Z,83.10
2022-09-12T02:08:35.636Z,83.10
2022-09-12T02:11:09.302Z,83.00
2022-09-12T02:14:05.511Z,83.10
2022-09-12T02:17:09.522Z,83.00
2022-09-12T02:19:46.271Z,83.00
2022-09-12T02:22:17.505Z,83.00
2022-09-12T02:24:50.574Z,83.00
2022-09-12T02:27:38.518Z,83.00
2022-09-12T02:30:14.743Z,83.00
2022-09-12T02:32:55.218Z,83.00
2022-09-12T02:35:57.867Z,83.00
2022-09-12T02:38:47.164Z,83.00
2022-09-12T02:41:21.653Z,83.00
2022-09-12T02:43:50.381Z,83.00
2022-09-12T02:46:42.721Z,83.00
2022-09-12T02:49:09.827Z,83.00
2022-09-12T02:51:45.593Z,83.00
2022-09-12T02:54:17.764Z,83.00
2022-09-12T02:56:50.922Z,83.00
2022-09-12T02:59:23.568Z,83.00
2022-09-12T03:02:20.706Z,83.00
2022-09-12T03:05:02.296Z,83.00
2022-09-12T03:07:47.946Z,83.00
2022-09-12T03:10:37.345Z,83.00
2022-09-12T03:13:13.017Z,82.90
2022-09-12T03:16:10.653Z,82.90
2022-09-12T03:18:57.899Z,82.90
2022-09-12T03:21:57.343Z,82.90
2022-09-12T03:24:56.618Z,82.90
2022-09-12T03:27:34.900Z,82.90
2022-09-12T03:30:04.179Z,82.90
2022-09-12T03:33:00.676Z,82.90
2022-09-12T03:35:33.015Z,82.90
2022-09-12T03:38:08.261Z,82.90
2022-09-12T03:40:41.342Z,82.90
2022-09-12T03:43:09.026Z,82.90
2022-09-12T03:45:36.799Z,82.90
2022-09-12T03:48:09.962Z,82.90
2022-09-12T03:50:39.261Z,82.90
2022-09-12T03:53:06.087Z,82.90
2022-09-12T03:55:36.230Z,82.90
2022-09-12T03:58:08.850Z,82.90
2022-09-12T04:00:35.756Z,82.90
2022-09-12T04:03:05.575Z,82.80
2022-09-12T04:05:34.103Z,82.90
2022-09-12T04:08:03.625Z,82.80
2022-09-12T04:10:34.147Z,82.90
2022-09-12T04:13:03.300Z,82.90
2022-09-12T04:15:35.723Z,82.80
2022-09-12T04:18:06.085Z,82.80
2022-09-12T04:20:33.147Z,82.80
2022-09-12T04:23:00.229Z,82.80
2022-09-12T04:25:28.376Z,82.80
2022-09-12T04:27:57.431Z,82.80
2022-09-12T04:30:24.319Z,82.80
2022-09-12T04:32:56.973Z,82.80
2022-09-12T04:35:23.797Z,82.80
2022-09-12T04:37:50.623Z,82.80
2022-09-12T04:40:17.891Z,82.80
2022-09-12T04:42:47.650Z,82.80
2022-09-12T04:45:19.631Z,82.80
2022-09-12T04:47:49.572Z,82.70
2022-09-12T04:50:21.750Z,82.70
2022-09-12T04:52:54.664Z,82.70
2022-09-12T04:55:22.566Z,82.70
2022-09-12T04:57:50.884Z,82.70
2022-09-12T05:00:17.876Z,82.70
2022-09-12T05:02:50.111Z,82.70
2022-09-12T05:05:19.479Z,82.70
2022-09-12T05:07:46.331Z,82.70
2022-09-12T05:10:13.135Z,82.70
2022-09-12T05:12:48.442Z,82.70
2022-09-12T05:15:15.313Z,82.70
2022-09-12T05:17:42.139Z,82.70
2022-09-12T05:20:10.848Z,82.70
2022-09-12T05:22:40.196Z,82.70
2022-09-12T05:25:16.538Z,82.60
2022-09-12T05:27:46.428Z,82.60
2022-09-12T05:30:16.935Z,82.60
2022-09-12T05:32:46.011Z,82.60
2022-09-12T05:35:15.634Z,82.60
2022-09-12T05:37:43.337Z,82.60
2022-09-12T05:40:13.090Z,82.60
2022-09-12T05:42:39.951Z,82.60
2022-09-12T05:45:07.200Z,82.60
2022-09-12T05:47:38.501Z,82.60
2022-09-12T05:50:11.670Z,82.60
2022-09-12T05:52:47.644Z,82.60
2022-09-12T05:55:17.159Z,82.60
2022-09-12T05:57:46.318Z,82.60
2022-09-12T06:00:15.012Z,82.60
2022-09-12T06:02:45.711Z,82.60
2022-09-12T06:05:12.560Z,82.60
2022-09-12T06:07:45.408Z,82.60
2022-09-12T06:10:16.726Z,82.60
2022-09-12T06:12:43.792Z,82.60
2022-09-12T06:15:10.940Z,82.60
2022-09-12T06:17:37.795Z,82.60
2022-09-12T06:20:13.420Z,82.60
2022-09-12T06:22:40.406Z,82.60
2022-09-12T06:25:11.760Z,82.60
2022-09-12T06:27:44.515Z,82.50
2022-09-12T06:30:13.529Z,82.60
2022-09-12T06:32:46.312Z,82.60
2022-09-12T06:35:18.276Z,82.60
2022-09-12T06:37:48.398Z,82.60
2022-09-12T06:40:18.370Z,82.50
2022-09-12T06:42:45.506Z,82.50
2022-09-12T06:45:12.342Z,82.60
2022-09-12T06:47:44.986Z,82.60
2022-09-12T06:50:12.892Z,82.50
2022-09-12T06:52:42.131Z,82.60
2022-09-12T06:55:18.924Z,82.50
2022-09-12T06:57:50.601Z,82.50
2022-09-12T07:00:18.044Z,82.50
2022-09-12T07:02:50.635Z,82.50
2022-09-12T07:05:23.735Z,82.50
2022-09-12T07:07:53.550Z,82.50
2022-09-12T07:10:22.458Z,82.50
2022-09-12T07:12:52.054Z,82.50
2022-09-12T07:15:24.504Z,82.50
2022-09-12T07:17:53.748Z,82.50
2022-09-12T07:20:20.573Z,82.50
2022-09-12T07:22:47.872Z,82.50
2022-09-12T07:25:16.845Z,82.50
2022-09-12T07:27:50.656Z,82.50
2022-09-12T07:30:23.749Z,82.50
2022-09-12T07:32:54.357Z,82.50
2022-09-12T07:35:22.005Z,82.50
2022-09-12T07:37:51.575Z,82.50
2022-09-12T07:40:24.571Z,82.50
2022-09-12T07:42:52.437Z,82.50
2022-09-12T07:45:21.824Z,82.50
2022-09-12T07:47:48.638Z,82.50
2022-09-12T07:50:21.058Z,82.50
2022-09-12T07:52:53.075Z,82.50
2022-09-12T07:55:24.310Z,82.10
2022-09-12T07:57:59.662Z,81.30
2022-09-12T08:00:31.704Z,81.40
2022-09-12T08:03:02.838Z,81.60
2022-09-12T08:05:32.814Z,81.80
2022-09-12T08:07:59.691Z,82.10
2022-09-12T08:10:26.816Z,82.10
2022-09-12T08:12:53.829Z,82.10
2022-09-12T08:15:25.266Z,82.10
2022-09-12T08:17:54.402Z,82.10
2022-09-12T08:20:27.711Z,82.10
2022-09-12T08:23:01.805Z,82.10
2022-09-12T08:25:28.755Z,82.20
2022-09-12T08:27:57.977Z,82.10
2022-09-12T08:30:27.869Z,82.10
2022-09-12T08:32:57.579Z,82.20
2022-09-12T08:35:24.378Z,82.20
2022-09-12T08:37:54.309Z,82.20
2022-09-12T08:40:23.930Z,82.20
2022-09-12T08:42:55.147Z,82.20
2022-09-12T08:45:49.152Z,82.20
2022-09-12T08:48:18.409Z,82.20
2022-09-12T08:50:49.843Z,82.20
2022-09-12T08:53:26.310Z,82.20
2022-09-12T08:55:56.111Z,82.20
2022-09-12T08:58:25.061Z,82.20
2022-09-12T09:01:03.989Z,82.20
2022-09-12T09:04:05.436Z,82.20
2022-09-12T09:06:58.869Z,82.20
2022-09-12T09:09:59.320Z,82.10
2022-09-12T09:12:48.605Z,82.10
2022-09-12T09:15:40.641Z,82.10
2022-09-12T09:18:31.753Z,82.10
2022-09-12T09:21:29.249Z,82.10
2022-09-12T09:24:05.381Z,82.10
2022-09-12T09:26:47.472Z,82.20
2022-09-12T09:29:18.914Z,82.20
2022-09-12T09:31:49.739Z,82.20
2022-09-12T09:34:29.195Z,82.20
2022-09-12T09:37:16.846Z,82.20
2022-09-12T09:40:04.347Z,82.20
2022-09-12T09:42:56.098Z,82.10
2022-09-12T09:45:32.268Z,82.10
2022-09-12T09:48:23.506Z,82.20
2022-09-12T09:50:53.729Z,82.10
2022-09-12T09:53:36.652Z,82.10
2022-09-12T09:56:34.002Z,82.10
2022-09-12T09:59:13.915Z,82.20
2022-09-12T10:01:55.798Z,82.10
2022-09-12T10:04:28.903Z,82.10
2022-09-12T10:07:17.463Z,82.20
2022-09-12T10:10:07.734Z,82.10
2022-09-12T10:12:36.329Z,82.10
2022-09-12T10:15:26.581Z,82.10
2022-09-12T10:17:55.874Z,82.20
2022-09-12T10:20:45.562Z,82.20
2022-09-12T10:23:21.473Z,82.20
2022-09-12T10:25:54.995Z,82.20
2022-09-12T10:28:36.485Z,82.20
2022-09-12T10:31:10.346Z,82.20
2022-09-12T10:33:53.852Z,82.20
2022-09-12T10:36:25.071Z,82.30
2022-09-12T10:38:56.966Z,82.30
2022-09-12T10:41:25.097Z,82.30
2022-09-12T10:44:05.899Z,82.40
2022-09-12T10:46:38.467Z,82.40
2022-09-12T10:49:38.229Z,82.40
2022-09-12T10:52:25.874Z,82.40
2022-09-12T10:54:54.527Z,82.40
2022-09-12T10:57:53.255Z,82.40
2022-09-12T11:00:28.075Z,82.40
2022-09-12T11:03:13.454Z,82.50
2022-09-12T11:05:59.732Z,82.50
2022-09-12T11:08:47.710Z,82.50
2022-09-12T11:11:30.093Z,82.50
2022-09-12T11:14:08.939Z,82.50
2022-09-12T11:16:55.904Z,82.50
2022-09-12T11:19:28.761Z,82.60
2022-09-12T11:22:35.999Z,82.60
2022-09-12T11:25:11.613Z,82.60
2022-09-12T11:28:09.808Z,82.70
2022-09-12T11:31:06.831Z,82.70
2022-09-12T11:33:43.650Z,82.80
2022-09-12T11:36:37.201Z,82.80
2022-09-12T11:39:11.399Z,82.90
2022-09-12T11:42:03.310Z,82.80
2022-09-12T11:44:43.082Z,82.80
2022-09-12T11:47:13.560Z,82.90
2022-09-12T11:49:57.507Z,82.90
2022-09-12T11:52:26.585Z,82.90
2022-09-12T11:55:23.619Z,83.00
2022-09-12T11:58:11.696Z,83.00
2022-09-12T12:00:45.250Z,83.00
2022-09-12T12:03:58.284Z,83.00
2022-09-12T12:06:32.295Z,83.10
2022-09-12T12:09:09.732Z,83.10
2022-09-12T12:11:50.033Z,83.10
2022-09-12T12:14:32.695Z,83.10
2022-09-12T12:16:59.762Z,83.20
2022-09-12T12:19:42.042Z,83.20
2022-09-12T12:22:17.174Z,83.20
2022-09-12T12:25:07.283Z,83.30
2022-09-12T12:27:53.859Z,83.30
2022-09-12T12:30:34.696Z,83.30
2022-09-12T12:33:27.456Z,83.40
2022-09-12T12:36:02.623Z,83.40
2022-09-12T12:38:34.897Z,83.50
2022-09-12T12:41:17.659Z,83.50
2022-09-12T12:43:54.993Z,83.50
2022-09-12T12:46:29.445Z,83.50
2022-09-12T12:49:05.298Z,83.60
2022-09-12T12:51:47.246Z,83.60
2022-09-12T12:54:42.657Z,83.40
2022-09-12T12:57:52.726Z,83.40
2022-09-12T13:00:33.420Z,83.40
2022-09-12T13:03:20.682Z,83.50
2022-09-12T13:05:55.239Z,83.50
2022-09-12T13:08:40.254Z,83.50
2022-09-12T13:11:21.312Z,83.50
2022-09-12T13:14:03.125Z,83.50
2022-09-12T13:16:38.862Z,83.60
2022-09-12T13:19:18.169Z,83.60
2022-09-12T13:21:59.992Z,83.60
2022-09-12T13:24:26.953Z,83.70
2022-09-12T13:26:58.090Z,83.70
2022-09-12T13:29:29.969Z,83.80
2022-09-12T13:32:05.607Z,83.80
2022-09-12T13:34:40.405Z,83.80
2022-09-12T13:37:35.334Z,83.70
2022-09-12T13:40:31.055Z,83.80
2022-09-12T13:43:20.607Z,83.70
2022-09-12T13:45:51.142Z,83.80
2022-09-12T13:48:23.731Z,83.80
2022-09-12T13:50:50.733Z,83.70
2022-09-12T13:53:26.140Z,83.70
2022-09-12T13:55:59.699Z,83.70
2022-09-12T13:58:31.421Z,83.80
2022-09-12T14:01:15.995Z,83.80
2022-09-12T14:04:13.095Z,83.80
2022-09-12T14:06:56.946Z,83.80
2022-09-12T14:09:38.617Z,83.90
2022-09-12T14:12:27.856Z,83.90
2022-09-12T14:14:57.564Z,83.90
2022-09-12T14:17:32.826Z,84.00
2022-09-12T14:20:04.108Z,84.00
2022-09-12T14:22:32.510Z,84.00
2022-09-12T14:25:05.096Z,84.00
2022-09-12T14:27:42.201Z,84.00
2022-09-12T14:30:33.160Z,84.10
2022-09-12T14:33:14.109Z,84.10
2022-09-12T14:35:54.637Z,84.10
2022-09-12T14:38:32.434Z,84.10
2022-09-12T14:41:01.950Z,83.20
2022-09-12T14:43:31.634Z,83.80
2022-09-12T14:46:29.337Z,83.90
2022-09-12T14:49:10.750Z,84.00
2022-09-12T14:51:51.197Z,84.00
2022-09-12T14:54:36.545Z,83.90
2022-09-12T14:57:33.409Z,83.90
2022-09-12T15:00:12.461Z,83.90
2022-09-12T15:02:45.551Z,83.90
2022-09-12T15:05:13.616Z,83.90
2022-09-12T15:07:49.211Z,83.90
2022-09-12T15:10:32.360Z,83.90
2022-09-12T15:13:17.230Z,84.00
2022-09-12T15:15:52.703Z,84.00
2022-09-12T15:18:20.772Z,84.00
2022-09-12T15:20:53.420Z,84.00
2022-09-12T15:23:47.843Z,84.00
2022-09-12T15:26:21.825Z,84.00
2022-09-12T15:28:51.676Z,84.10
2022-09-12T15:31:32.779Z,84.00
2022-09-12T15:34:04.528Z,84.10
2022-09-12T15:36:40.360Z,84.10
2022-09-12T15:39:09.676Z,84.10
2022-09-12T15:41:44.272Z,84.10
2022-09-12T15:44:12.737Z,84.20
2022-09-12T15:46:42.376Z,84.20
2022-09-12T15:49:11.689Z,84.20
2022-09-12T15:51:43.241Z,84.20
2022-09-12T15:54:16.847Z,84.20
2022-09-12T15:56:44.028Z,84.30
2022-09-12T15:59:13.681Z,84.30
2022-09-12T16:01:40.577Z,84.30
2022-09-12T16:04:28.599Z,84.30
2022-09-12T16:06:57.920Z,84.30
2022-09-12T16:09:25.026Z,84.30
2022-09-12T16:11:52.483Z,84.30
2022-09-12T16:14:22.721Z,84.30
2022-09-12T16:16:59.400Z,84.40
2022-09-12T16:19:26.315Z,84.40
2022-09-12T16:21:56.244Z,84.40
2022-09-12T16:24:26.295Z,84.40
2022-09-12T16:26:54.438Z,84.40
2022-09-12T16:29:26.418Z,84.40
2022-09-12T16:31:58.283Z,84.40
2022-09-12T16:34:27.703Z,84.40
2022-09-12T16:36:54.675Z,84.40
2022-09-12T16:39:24.386Z,84.40
2022-09-12T16:41:51.234Z,84.40
2022-09-12T16:44:23.534Z,84.40
2022-09-12T16:46:53.073Z,84.40
2022-09-12T16:49:22.827Z,84.40
2022-09-12T16:51:56.579Z,84.40
2022-09-12T16:54:25.756Z,84.40
2022-09-12T16:56:54.809Z,84.40
2022-09-12T16:59:26.857Z,84.40
2022-09-12T17:01:56.575Z,84.40
2022-09-12T17:04:31.892Z,84.40
2022-09-12T17:06:59.604Z,84.30
2022-09-12T17:09:28.183Z,84.40
2022-09-12T17:11:58.653Z,84.30
2022-09-12T17:14:25.787Z,84.30
2022-09-12T17:16:52.958Z,84.30
2022-09-12T17:19:24.778Z,84.30
2022-09-12T17:21:54.634Z,84.30
2022-09-12T17:24:24.280Z,84.30
2022-09-12T17:26:53.583Z,84.30
2022-09-12T17:29:21.007Z,84.30
2022-09-12T17:31:50.990Z,84.30
2022-09-12T17:34:20.965Z,84.20
2022-09-12T17:36:51.288Z,84.20
2022-09-12T17:39:23.362Z,84.30
2022-09-12T17:41:57.673Z,84.20
2022-09-12T17:44:24.734Z,84.20
2022-09-12T17:46:51.568Z,84.20
2022-09-12T17:49:22.119Z,84.20
2022-09-12T17:51:49.512Z,84.30
2022-09-12T17:54:18.918Z,84.30
2022-09-12T17:56:47.357Z,84.30
2022-09-12T17:59:17.604Z,84.30
2022-09-12T18:02:03.479Z,84.30
2022-09-12T18:04:31.091Z,84.30
2022-09-12T18:07:00.350Z,84.30
2022-09-12T18:09:28.263Z,84.30
2022-09-12T18:11:55.601Z,84.30
2022-09-12T18:14:23.114Z,84.20
2022-09-12T18:16:50.266Z,84.20
2022-09-12T18:19:17.927Z,84.20
2022-09-12T18:21:44.767Z,84.20
2022-09-12T18:24:12.397Z,84.20
2022-09-12T18:26:39.554Z,84.20
2022-09-12T18:29:12.471Z,84.20
2022-09-12T18:31:42.606Z,84.10
2022-09-12T18:34:16.644Z,84.10
2022-09-12T18:36:48.717Z,84.10
2022-09-12T18:39:18.308Z,84.10
2022-09-12T18:41:45.140Z,84.10
2022-09-12T18:44:12.185Z,84.10
2022-09-12T18:46:39.417Z,84.10
2022-09-12T18:49:07.761Z,84.00
2022-09-12T18:51:36.697Z,84.00
2022-09-12T18:54:06.521Z,84.00
2022-09-12T18:56:35.989Z,84.00
2022-09-12T18:59:05.309Z,84.00
2022-09-12T19:01:35.183Z,84.00
2022-09-12T19:04:05.835Z,84.00
2022-09-12T19:06:36.348Z,83.90
2022-09-12T19:09:07.559Z,83.90
2022-09-12T19:11:36.629Z,83.90
2022-09-12T19:14:03.932Z,83.90
2022-09-12T19:16:31.000Z,83.90
2022-09-12T19:18:58.856Z,83.90
2022-09-12T19:21:31.779Z,83.90
2022-09-12T19:24:10.047Z,83.90
2022-09-12T19:26:38.310Z,83.90
2022-09-12T19:29:05.632Z,83.90
2022-09-12T19:31:32.689Z,83.90
2022-09-12T19:34:01.868Z,83.90
2022-09-12T19:36:46.367Z,83.90
2022-09-12T19:39:14.729Z,83.80
2022-09-12T19:41:41.557Z,83.80
2022-09-12T19:44:08.528Z,83.80
2022-09-12T19:46:35.434Z,83.80
2022-09-12T19:49:02.262Z,83.80
2022-09-12T19:51:29.104Z,83.80
2022-09-12T19:53:56.126Z,83.80
2022-09-12T19:56:22.969Z,83.70
2022-09-12T19:58:55.691Z,83.80
2022-09-12T20:01:25.702Z,83.70
2022-09-12T20:03:53.863Z,83.70
2022-09-12T20:06:20.867Z,83.70
2022-09-12T20:08:48.883Z,83.70
2022-09-12T20:11:19.189Z,83.70
2022-09-12T20:13:49.764Z,83.70
2022-09-12T20:16:29.513Z,83.70
2022-09-12T20:19:02.219Z,83.70
2022-09-12T20:21:35.412Z,83.70
2022-09-12T20:24:05.806Z,83.70
2022-09-12T20:26:38.191Z,83.60
2022-09-12T20:29:08.955Z,83.60
2022-09-12T20:31:42.877Z,83.60
2022-09-12T20:34:26.648Z,83.60
2022-09-12T20:37:01.618Z,83.60
2022-09-12T20:39:34.822Z,83.60
2022-09-12T20:44:34.862Z,83.60
2022-09-12T20:47:04.850Z,83.50
2022-09-12T20:49:41.561Z,83.60
2022-09-12T20:52:11.160Z,83.70
2022-09-12T20:54:40.106Z,83.60
2022-09-12T20:57:11.931Z,83.60
2022-09-12T20:59:42.544Z,83.60
2022-09-12T21:02:19.263Z,83.60
2022-09-12T21:04:49.543Z,83.60
2022-09-12T21:07:19.125Z,83.60
2022-09-12T21:09:48.618Z,83.60
2022-09-12T21:12:17.912Z,83.60
2022-09-12T21:14:47.841Z,83.50
2022-09-12T21:17:16.985Z,83.50
2022-09-12T21:19:46.502Z,83.60
2022-09-12T21:22:16.043Z,83.50
2022-09-12T21:24:42.853Z,83.60
2022-09-12T21:27:15.719Z,83.50
2022-09-12T21:29:45.097Z,83.50
2022-09-12T21:32:14.180Z,83.50
2022-09-12T21:34:44.891Z,83.50
2022-09-12T21:37:11.887Z,83.50
2022-09-12T21:39:42.895Z,83.50
2022-09-12T21:42:13.095Z,83.50
2022-09-12T21:44:42.004Z,83.50
2022-09-12T21:47:09.299Z,83.50
2022-09-12T21:49:39.083Z,83.50
2022-09-12T21:52:11.941Z,83.40
2022-09-12T21:54:39.240Z,83.40
2022-09-12T21:57:09.316Z,83.40
2022-09-12T21:59:38.882Z,83.40
2022-09-12T22:02:11.256Z,83.40
2022-09-12T22:04:40.466Z,83.40
2022-09-12T22:07:07.605Z,83.40
2022-09-12T22:09:39.187Z,83.40
2022-09-12T22:12:08.630Z,83.40
2022-09-12T22:14:39.576Z,83.40
2022-09-12T22:17:12.424Z,83.40
2022-09-12T22:19:44.043Z,83.40
2022-09-12T22:22:31.991Z,83.30
2022-09-12T22:24:58.942Z,83.40
2022-09-12T22:27:32.784Z,83.40
2022-09-12T22:30:01.857Z,83.30
2022-09-12T22:32:31.655Z,83.40
2022-09-12T22:34:59.622Z,83.30
2022-09-12T22:37:28.698Z,83.30
2022-09-12T22:39:55.882Z,83.30
2022-09-12T22:42:22.832Z,83.30
2022-09-12T22:44:55.636Z,83.30
2022-09-12T22:47:22.530Z,83.30
2022-09-12T22:49:52.436Z,83.30
2022-09-12T22:52:19.482Z,83.30
2022-09-12T22:54:51.826Z,83.30
2022-09-12T22:57:18.657Z,83.30
2022-09-12T22:59:45.462Z,83.30
2022-09-12T23:02:15.145Z,83.30
2022-09-12T23:04:49.399Z,83.30
2022-09-12T23:07:21.536Z,83.30
2022-09-12T23:09:51.522Z,83.30
2022-09-12T23:12:22.985Z,83.20
2022-09-12T23:14:49.799Z,83.20
2022-09-12T23:17:16.657Z,83.20
2022-09-12T23:19:46.259Z,83.20
2022-09-12T23:22:15.990Z,83.20
2022-09-12T23:24:42.826Z,83.20
2022-09-12T23:27:09.650Z,83.20
2022-09-12T23:29:36.764Z,83.20
2022-09-12T23:32:06.865Z,83.20
2022-09-12T23:34:38.372Z,83.20
2022-09-12T23:37:11.169Z,83.20
2022-09-12T23:39:46.203Z,83.20
2022-09-12T23:42:20.202Z,83.20
2022-09-12T23:44:49.220Z,83.20
2022-09-12T23:47:22.103Z,83.20
2022-09-12T23:49:49.152Z,83.20
2022-09-12T23:52:19.606Z,83.10
2022-09-12T23:54:52.292Z,83.10
2022-09-12T23:57:24.257Z,83.10
2022-09-12T23:59:51.315Z,83.10
